sensor_id;sensor_type;location;lat;lon;timestamp;P1;durP1;ratioP1;P2;durP2;ratioP2
23179;SDS011;11758;45.756;11.432;2023-07-09T00:01:15;4.90;;;4.50;;
23179;SDS011;11758;45.756;11.432;2023-07-09T00:03:46;7.82;;;5.07;;
23179;SDS011;11758;45.756;11.432;2023-07-09T00:06:18;6.22;;;4.70;;
23179;SDS011;11758;45.756;11.432;2023-07-09T00:08:45;5.03;;;4.55;;
23179;SDS011;11758;45.756;11.432;2023-07-09T00:11:13;9.63;;;4.70;;
23179;SDS011;11758;45.756;11.432;2023-07-09T00:13:40;5.05;;;4.65;;
23179;SDS011;11758;45.756;11.432;2023-07-09T00:16:13;6.10;;;4.85;;
23179;SDS011;11758;45.756;11.432;2023-07-09T00:18:39;6.30;;;4.80;;
23179;SDS011;11758;45.756;11.432;2023-07-09T00:21:06;5.55;;;4.63;;
23179;SDS011;11758;45.756;11.432;2023-07-09T00:23:32;5.93;;;4.90;;
23179;SDS011;11758;45.756;11.432;2023-07-09T00:25:58;4.85;;;4.45;;
23179;SDS011;11758;45.756;11.432;2023-07-09T00:28:24;5.32;;;4.75;;
23179;SDS011;11758;45.756;11.432;2023-07-09T00:30:50;4.97;;;4.57;;
23179;SDS011;11758;45.756;11.432;2023-07-09T00:33:16;10.82;;;4.70;;
23179;SDS011;11758;45.756;11.432;2023-07-09T00:35:46;5.05;;;4.55;;
23179;SDS011;11758;45.756;11.432;2023-07-09T00:38:19;5.95;;;4.70;;
23179;SDS011;11758;45.756;11.432;2023-07-09T00:40:47;7.18;;;4.50;;
23179;SDS011;11758;45.756;11.432;2023-07-09T00:43:15;8.00;;;4.88;;
23179;SDS011;11758;45.756;11.432;2023-07-09T00:45:41;5.95;;;4.60;;
23179;SDS011;11758;45.756;11.432;2023-07-09T00:48:11;5.40;;;4.90;;
23179;SDS011;11758;45.756;11.432;2023-07-09T00:50:50;6.80;;;5.05;;
23179;SDS011;11758;45.756;11.432;2023-07-09T00:53:29;5.68;;;4.93;;
23179;SDS011;11758;45.756;11.432;2023-07-09T00:55:58;5.15;;;4.75;;
23179;SDS011;11758;45.756;11.432;2023-07-09T00:58:28;4.97;;;4.45;;
23179;SDS011;11758;45.756;11.432;2023-07-09T01:00:56;5.82;;;5.03;;
23179;SDS011;11758;45.756;11.432;2023-07-09T01:03:34;4.90;;;4.45;;
23179;SDS011;11758;45.756;11.432;2023-07-09T01:06:00;6.65;;;4.53;;
23179;SDS011;11758;45.756;11.432;2023-07-09T01:08:31;4.85;;;4.40;;
23179;SDS011;11758;45.756;11.432;2023-07-09T01:10:58;5.45;;;4.95;;
23179;SDS011;11758;45.756;11.432;2023-07-09T01:13:28;7.40;;;4.82;;
23179;SDS011;11758;45.756;11.432;2023-07-09T01:15:57;7.13;;;5.03;;
23179;SDS011;11758;45.756;11.432;2023-07-09T01:18:24;6.93;;;5.20;;
23179;SDS011;11758;45.756;11.432;2023-07-09T01:20:51;5.90;;;5.20;;
23179;SDS011;11758;45.756;11.432;2023-07-09T01:23:18;7.15;;;5.43;;
23179;SDS011;11758;45.756;11.432;2023-07-09T01:25:45;4.85;;;4.40;;
23179;SDS011;11758;45.756;11.432;2023-07-09T01:28:17;5.75;;;4.80;;
23179;SDS011;11758;45.756;11.432;2023-07-09T01:30:43;5.18;;;4.45;;
23179;SDS011;11758;45.756;11.432;2023-07-09T01:33:10;5.53;;;5.03;;
23179;SDS011;11758;45.756;11.432;2023-07-09T01:35:37;7.88;;;4.90;;
23179;SDS011;11758;45.756;11.432;2023-07-09T01:38:07;7.18;;;5.18;;
23179;SDS011;11758;45.756;11.432;2023-07-09T01:40:34;6.32;;;4.80;;
23179;SDS011;11758;45.756;11.432;2023-07-09T01:43:01;6.80;;;5.28;;
23179;SDS011;11758;45.756;11.432;2023-07-09T01:45:31;6.35;;;5.10;;
23179;SDS011;11758;45.756;11.432;2023-07-09T01:47:58;5.13;;;4.53;;
23179;SDS011;11758;45.756;11.432;2023-07-09T01:50:24;6.95;;;4.97;;
23179;SDS011;11758;45.756;11.432;2023-07-09T01:52:52;10.48;;;4.90;;
23179;SDS011;11758;45.756;11.432;2023-07-09T01:55:18;6.18;;;5.05;;
23179;SDS011;11758;45.756;11.432;2023-07-09T01:57:45;5.00;;;4.57;;
23179;SDS011;11758;45.756;11.432;2023-07-09T02:00:15;8.25;;;5.30;;
23179;SDS011;11758;45.756;11.432;2023-07-09T02:02:42;9.43;;;4.93;;
23179;SDS011;11758;45.756;11.432;2023-07-09T02:05:09;8.77;;;4.78;;
23179;SDS011;11758;45.756;11.432;2023-07-09T02:07:36;5.13;;;4.63;;
23179;SDS011;11758;45.756;11.432;2023-07-09T02:10:03;8.02;;;5.00;;
23179;SDS011;11758;45.756;11.432;2023-07-09T02:12:29;5.72;;;4.50;;
23179;SDS011;11758;45.756;11.432;2023-07-09T02:14:55;7.85;;;4.68;;
23179;SDS011;11758;45.756;11.432;2023-07-09T02:17:21;5.75;;;5.15;;
23179;SDS011;11758;45.756;11.432;2023-07-09T02:19:48;6.25;;;4.70;;
23179;SDS011;11758;45.756;11.432;2023-07-09T02:22:14;5.35;;;4.80;;
23179;SDS011;11758;45.756;11.432;2023-07-09T02:24:40;5.70;;;4.78;;
23179;SDS011;11758;45.756;11.432;2023-07-09T02:27:07;6.35;;;5.07;;
23179;SDS011;11758;45.756;11.432;2023-07-09T02:29:35;7.68;;;5.10;;
23179;SDS011;11758;45.756;11.432;2023-07-09T02:32:02;5.18;;;4.68;;
23179;SDS011;11758;45.756;11.432;2023-07-09T02:34:29;7.93;;;4.93;;
23179;SDS011;11758;45.756;11.432;2023-07-09T02:36:56;5.38;;;4.88;;
23179;SDS011;11758;45.756;11.432;2023-07-09T02:39:22;11.18;;;5.30;;
23179;SDS011;11758;45.756;11.432;2023-07-09T02:41:49;9.55;;;4.68;;
23179;SDS011;11758;45.756;11.432;2023-07-09T02:44:16;8.13;;;4.88;;
23179;SDS011;11758;45.756;11.432;2023-07-09T02:46:42;6.00;;;5.40;;
23179;SDS011;11758;45.756;11.432;2023-07-09T02:49:09;5.13;;;4.68;;
23179;SDS011;11758;45.756;11.432;2023-07-09T02:51:35;6.15;;;5.18;;
23179;SDS011;11758;45.756;11.432;2023-07-09T02:54:01;6.72;;;5.38;;
23179;SDS011;11758;45.756;11.432;2023-07-09T02:56:28;7.95;;;5.40;;
23179;SDS011;11758;45.756;11.432;2023-07-09T02:58:54;5.45;;;4.90;;
23179;SDS011;11758;45.756;11.432;2023-07-09T03:01:20;7.95;;;5.03;;
23179;SDS011;11758;45.756;11.432;2023-07-09T03:03:53;6.97;;;5.22;;
23179;SDS011;11758;45.756;11.432;2023-07-09T03:06:22;5.97;;;5.38;;
23179;SDS011;11758;45.756;11.432;2023-07-09T03:08:49;6.95;;;4.97;;
23179;SDS011;11758;45.756;11.432;2023-07-09T03:11:16;5.70;;;5.00;;
23179;SDS011;11758;45.756;11.432;2023-07-09T03:13:43;5.65;;;5.05;;
23179;SDS011;11758;45.756;11.432;2023-07-09T03:16:09;8.05;;;5.38;;
23179;SDS011;11758;45.756;11.432;2023-07-09T03:18:35;6.63;;;5.35;;
23179;SDS011;11758;45.756;11.432;2023-07-09T03:21:01;5.03;;;4.63;;
23179;SDS011;11758;45.756;11.432;2023-07-09T03:23:27;8.98;;;5.00;;
23179;SDS011;11758;45.756;11.432;2023-07-09T03:25:54;10.00;;;5.32;;
23179;SDS011;11758;45.756;11.432;2023-07-09T03:28:20;5.40;;;4.90;;
23179;SDS011;11758;45.756;11.432;2023-07-09T03:30:47;7.70;;;4.75;;
23179;SDS011;11758;45.756;11.432;2023-07-09T03:33:14;8.10;;;5.70;;
23179;SDS011;11758;45.756;11.432;2023-07-09T03:35:41;12.63;;;5.53;;
23179;SDS011;11758;45.756;11.432;2023-07-09T03:38:07;8.85;;;4.88;;
23179;SDS011;11758;45.756;11.432;2023-07-09T03:40:34;9.07;;;4.93;;
23179;SDS011;11758;45.756;11.432;2023-07-09T03:43:00;6.10;;;5.20;;
23179;SDS011;11758;45.756;11.432;2023-07-09T03:45:26;5.85;;;5.15;;
23179;SDS011;11758;45.756;11.432;2023-07-09T03:47:53;6.80;;;5.70;;
23179;SDS011;11758;45.756;11.432;2023-07-09T03:50:19;4.95;;;4.50;;
23179;SDS011;11758;45.756;11.432;2023-07-09T03:52:45;5.60;;;5.00;;
23179;SDS011;11758;45.756;11.432;2023-07-09T03:55:11;10.70;;;5.82;;
23179;SDS011;11758;45.756;11.432;2023-07-09T03:57:38;6.57;;;5.07;;
23179;SDS011;11758;45.756;11.432;2023-07-09T04:00:04;7.75;;;5.43;;
23179;SDS011;11758;45.756;11.432;2023-07-09T04:02:31;6.85;;;5.05;;
23179;SDS011;11758;45.756;11.432;2023-07-09T04:04:57;6.45;;;4.57;;
23179;SDS011;11758;45.756;11.432;2023-07-09T04:07:23;8.60;;;5.03;;
23179;SDS011;11758;45.756;11.432;2023-07-09T04:09:49;5.93;;;4.90;;
23179;SDS011;11758;45.756;11.432;2023-07-09T04:12:15;6.82;;;5.20;;
23179;SDS011;11758;45.756;11.432;2023-07-09T04:14:41;7.18;;;4.82;;
23179;SDS011;11758;45.756;11.432;2023-07-09T04:17:07;5.72;;;5.15;;
23179;SDS011;11758;45.756;11.432;2023-07-09T04:19:33;6.57;;;5.15;;
23179;SDS011;11758;45.756;11.432;2023-07-09T04:21:59;9.30;;;5.03;;
23179;SDS011;11758;45.756;11.432;2023-07-09T04:24:26;7.32;;;5.43;;
23179;SDS011;11758;45.756;11.432;2023-07-09T04:26:52;6.68;;;5.22;;
23179;SDS011;11758;45.756;11.432;2023-07-09T04:29:21;5.95;;;5.30;;
23179;SDS011;11758;45.756;11.432;2023-07-09T04:31:48;5.30;;;4.80;;
23179;SDS011;11758;45.756;11.432;2023-07-09T04:34:14;5.38;;;4.63;;
23179;SDS011;11758;45.756;11.432;2023-07-09T04:36:40;6.57;;;5.20;;
23179;SDS011;11758;45.756;11.432;2023-07-09T04:39:06;5.72;;;4.97;;
23179;SDS011;11758;45.756;11.432;2023-07-09T04:41:32;6.82;;;5.38;;
23179;SDS011;11758;45.756;11.432;2023-07-09T04:43:59;7.32;;;4.90;;
23179;SDS011;11758;45.756;11.432;2023-07-09T04:46:25;5.00;;;4.60;;
23179;SDS011;11758;45.756;11.432;2023-07-09T04:48:51;7.30;;;5.07;;
23179;SDS011;11758;45.756;11.432;2023-07-09T04:51:17;6.90;;;4.97;;
23179;SDS011;11758;45.756;11.432;2023-07-09T04:53:43;5.68;;;4.70;;
23179;SDS011;11758;45.756;11.432;2023-07-09T04:56:09;5.75;;;5.25;;
23179;SDS011;11758;45.756;11.432;2023-07-09T04:58:36;7.97;;;5.55;;
23179;SDS011;11758;45.756;11.432;2023-07-09T05:01:02;9.05;;;5.68;;
23179;SDS011;11758;45.756;11.432;2023-07-09T05:03:28;9.02;;;5.80;;
23179;SDS011;11758;45.756;11.432;2023-07-09T05:05:54;6.85;;;5.53;;
23179;SDS011;11758;45.756;11.432;2023-07-09T05:08:20;6.97;;;5.10;;
23179;SDS011;11758;45.756;11.432;2023-07-09T05:10:49;5.80;;;5.30;;
23179;SDS011;11758;45.756;11.432;2023-07-09T05:13:16;5.63;;;5.13;;
23179;SDS011;11758;45.756;11.432;2023-07-09T05:15:44;6.60;;;5.35;;
23179;SDS011;11758;45.756;11.432;2023-07-09T05:18:13;7.13;;;5.43;;
23179;SDS011;11758;45.756;11.432;2023-07-09T05:20:40;5.72;;;5.15;;
23179;SDS011;11758;45.756;11.432;2023-07-09T05:23:07;9.30;;;5.68;;
23179;SDS011;11758;45.756;11.432;2023-07-09T05:25:34;10.05;;;5.03;;
23179;SDS011;11758;45.756;11.432;2023-07-09T05:28:00;6.10;;;4.78;;
23179;SDS011;11758;45.756;11.432;2023-07-09T05:30:26;7.10;;;4.75;;
23179;SDS011;11758;45.756;11.432;2023-07-09T05:32:52;5.50;;;4.97;;
23179;SDS011;11758;45.756;11.432;2023-07-09T05:35:23;7.00;;;4.78;;
23179;SDS011;11758;45.756;11.432;2023-07-09T05:37:50;6.88;;;5.63;;
23179;SDS011;11758;45.756;11.432;2023-07-09T05:40:16;8.40;;;5.32;;
23179;SDS011;11758;45.756;11.432;2023-07-09T05:42:42;7.18;;;4.95;;
23179;SDS011;11758;45.756;11.432;2023-07-09T05:45:09;5.85;;;4.65;;
23179;SDS011;11758;45.756;11.432;2023-07-09T05:47:35;7.10;;;5.22;;
23179;SDS011;11758;45.756;11.432;2023-07-09T05:50:04;6.63;;;5.15;;
23179;SDS011;11758;45.756;11.432;2023-07-09T05:52:31;5.68;;;4.88;;
23179;SDS011;11758;45.756;11.432;2023-07-09T05:54:57;6.88;;;4.72;;
23179;SDS011;11758;45.756;11.432;2023-07-09T05:57:25;5.72;;;5.13;;
23179;SDS011;11758;45.756;11.432;2023-07-09T05:59:51;5.57;;;4.97;;
23179;SDS011;11758;45.756;11.432;2023-07-09T06:02:18;6.95;;;4.93;;
23179;SDS011;11758;45.756;11.432;2023-07-09T06:04:44;5.80;;;4.72;;
23179;SDS011;11758;45.756;11.432;2023-07-09T06:07:11;7.15;;;5.00;;
23179;SDS011;11758;45.756;11.432;2023-07-09T06:09:39;8.82;;;5.25;;
23179;SDS011;11758;45.756;11.432;2023-07-09T06:12:06;5.20;;;4.70;;
23179;SDS011;11758;45.756;11.432;2023-07-09T06:14:33;6.07;;;4.72;;
23179;SDS011;11758;45.756;11.432;2023-07-09T06:17:01;5.72;;;5.15;;
23179;SDS011;11758;45.756;11.432;2023-07-09T06:19:30;6.05;;;4.55;;
23179;SDS011;11758;45.756;11.432;2023-07-09T06:22:04;10.40;;;5.22;;
23179;SDS011;11758;45.756;11.432;2023-07-09T06:24:30;5.18;;;4.78;;
23179;SDS011;11758;45.756;11.432;2023-07-09T06:26:56;5.65;;;5.15;;
23179;SDS011;11758;45.756;11.432;2023-07-09T06:29:24;7.47;;;5.03;;
23179;SDS011;11758;45.756;11.432;2023-07-09T06:31:50;7.72;;;5.00;;
23179;SDS011;11758;45.756;11.432;2023-07-09T06:34:16;10.82;;;5.10;;
23179;SDS011;11758;45.756;11.432;2023-07-09T06:36:43;5.72;;;5.13;;
23179;SDS011;11758;45.756;11.432;2023-07-09T06:39:09;8.30;;;5.30;;
23179;SDS011;11758;45.756;11.432;2023-07-09T06:41:35;6.57;;;5.40;;
23179;SDS011;11758;45.756;11.432;2023-07-09T06:44:07;12.13;;;9.43;;
23179;SDS011;11758;45.756;11.432;2023-07-09T06:46:33;12.02;;;10.48;;
23179;SDS011;11758;45.756;11.432;2023-07-09T06:48:59;12.65;;;9.48;;
23179;SDS011;11758;45.756;11.432;2023-07-09T06:51:25;13.93;;;9.13;;
23179;SDS011;11758;45.756;11.432;2023-07-09T06:53:51;9.15;;;7.63;;
23179;SDS011;11758;45.756;11.432;2023-07-09T06:56:18;13.23;;;7.97;;
23179;SDS011;11758;45.756;11.432;2023-07-09T06:58:44;8.80;;;7.18;;
23179;SDS011;11758;45.756;11.432;2023-07-09T07:01:11;6.93;;;5.75;;
23179;SDS011;11758;45.756;11.432;2023-07-09T07:03:37;5.32;;;4.82;;
23179;SDS011;11758;45.756;11.432;2023-07-09T07:06:04;8.75;;;6.03;;
23179;SDS011;11758;45.756;11.432;2023-07-09T07:08:31;6.70;;;5.80;;
23179;SDS011;11758;45.756;11.432;2023-07-09T07:10:59;7.18;;;5.45;;
23179;SDS011;11758;45.756;11.432;2023-07-09T07:13:31;7.43;;;5.00;;
23179;SDS011;11758;45.756;11.432;2023-07-09T07:15:58;6.07;;;5.18;;
23179;SDS011;11758;45.756;11.432;2023-07-09T07:18:24;10.30;;;5.43;;
23179;SDS011;11758;45.756;11.432;2023-07-09T07:20:53;5.78;;;5.07;;
23179;SDS011;11758;45.756;11.432;2023-07-09T07:23:20;8.07;;;5.10;;
23179;SDS011;11758;45.756;11.432;2023-07-09T07:25:47;5.72;;;4.88;;
23179;SDS011;11758;45.756;11.432;2023-07-09T07:28:14;5.93;;;4.70;;
23179;SDS011;11758;45.756;11.432;2023-07-09T07:30:40;7.30;;;4.88;;
23179;SDS011;11758;45.756;11.432;2023-07-09T07:33:06;7.13;;;5.30;;
23179;SDS011;11758;45.756;11.432;2023-07-09T07:35:32;7.07;;;5.43;;
23179;SDS011;11758;45.756;11.432;2023-07-09T07:37:58;9.70;;;5.30;;
23179;SDS011;11758;45.756;11.432;2023-07-09T07:40:24;7.13;;;5.30;;
23179;SDS011;11758;45.756;11.432;2023-07-09T07:42:51;7.75;;;5.20;;
23179;SDS011;11758;45.756;11.432;2023-07-09T07:45:17;7.00;;;5.00;;
23179;SDS011;11758;45.756;11.432;2023-07-09T07:47:43;7.70;;;5.40;;
23179;SDS011;11758;45.756;11.432;2023-07-09T07:50:09;8.63;;;4.43;;
23179;SDS011;11758;45.756;11.432;2023-07-09T07:52:35;11.73;;;5.75;;
23179;SDS011;11758;45.756;11.432;2023-07-09T07:55:05;10.38;;;5.47;;
23179;SDS011;11758;45.756;11.432;2023-07-09T07:57:32;11.93;;;5.50;;
23179;SDS011;11758;45.756;11.432;2023-07-09T07:59:58;7.05;;;5.05;;
23179;SDS011;11758;45.756;11.432;2023-07-09T08:02:26;6.22;;;4.97;;
23179;SDS011;11758;45.756;11.432;2023-07-09T08:04:52;7.85;;;5.50;;
23179;SDS011;11758;45.756;11.432;2023-07-09T08:07:18;6.05;;;5.07;;
23179;SDS011;11758;45.756;11.432;2023-07-09T08:09:45;10.73;;;5.50;;
23179;SDS011;11758;45.756;11.432;2023-07-09T08:12:12;11.63;;;5.53;;
23179;SDS011;11758;45.756;11.432;2023-07-09T08:14:39;7.85;;;5.60;;
23179;SDS011;11758;45.756;11.432;2023-07-09T08:17:05;7.72;;;5.53;;
23179;SDS011;11758;45.756;11.432;2023-07-09T08:19:32;8.50;;;6.00;;
23179;SDS011;11758;45.756;11.432;2023-07-09T08:21:58;6.32;;;5.72;;
23179;SDS011;11758;45.756;11.432;2023-07-09T08:24:24;8.88;;;5.35;;
23179;SDS011;11758;45.756;11.432;2023-07-09T08:26:50;11.52;;;5.43;;
23179;SDS011;11758;45.756;11.432;2023-07-09T08:29:17;10.43;;;6.00;;
23179;SDS011;11758;45.756;11.432;2023-07-09T08:31:46;10.18;;;6.18;;
23179;SDS011;11758;45.756;11.432;2023-07-09T08:34:12;10.93;;;6.45;;
23179;SDS011;11758;45.756;11.432;2023-07-09T08:36:38;8.45;;;6.40;;
23179;SDS011;11758;45.756;11.432;2023-07-09T08:39:04;9.30;;;5.85;;
23179;SDS011;11758;45.756;11.432;2023-07-09T08:44:24;8.45;;;5.68;;
23179;SDS011;11758;45.756;11.432;2023-07-09T08:49:19;10.65;;;6.05;;
23179;SDS011;11758;45.756;11.432;2023-07-09T08:51:47;6.03;;;5.43;;
23179;SDS011;11758;45.756;11.432;2023-07-09T08:54:27;9.95;;;5.95;;
23179;SDS011;11758;45.756;11.432;2023-07-09T08:56:54;6.47;;;5.68;;
23179;SDS011;11758;45.756;11.432;2023-07-09T08:59:22;7.78;;;6.05;;
23179;SDS011;11758;45.756;11.432;2023-07-09T09:01:51;11.52;;;6.00;;
23179;SDS011;11758;45.756;11.432;2023-07-09T09:04:22;9.82;;;6.13;;
23179;SDS011;11758;45.756;11.432;2023-07-09T09:09:28;6.50;;;5.90;;
23179;SDS011;11758;45.756;11.432;2023-07-09T09:14:41;10.88;;;6.05;;
23179;SDS011;11758;45.756;11.432;2023-07-09T09:17:12;8.40;;;6.13;;
23179;SDS011;11758;45.756;11.432;2023-07-09T09:22:12;8.25;;;5.70;;
23179;SDS011;11758;45.756;11.432;2023-07-09T09:25:03;9.52;;;5.82;;
23179;SDS011;11758;45.756;11.432;2023-07-09T09:27:25;7.63;;;5.78;;
23179;SDS011;11758;45.756;11.432;2023-07-09T09:29:51;10.18;;;6.53;;
23179;SDS011;11758;45.756;11.432;2023-07-09T09:32:20;8.82;;;6.20;;
23179;SDS011;11758;45.756;11.432;2023-07-09T09:34:47;8.68;;;6.70;;
23179;SDS011;11758;45.756;11.432;2023-07-09T09:37:15;7.63;;;6.35;;
23179;SDS011;11758;45.756;11.432;2023-07-09T09:39:48;11.18;;;6.28;;
23179;SDS011;11758;45.756;11.432;2023-07-09T09:42:14;8.55;;;6.45;;
23179;SDS011;11758;45.756;11.432;2023-07-09T09:44:44;14.82;;;6.47;;
23179;SDS011;11758;45.756;11.432;2023-07-09T09:47:10;8.15;;;6.53;;
23179;SDS011;11758;45.756;11.432;2023-07-09T09:49:40;9.07;;;6.32;;
23179;SDS011;11758;45.756;11.432;2023-07-09T09:52:11;11.15;;;6.60;;
23179;SDS011;11758;45.756;11.432;2023-07-09T09:54:39;12.43;;;6.72;;
23179;SDS011;11758;45.756;11.432;2023-07-09T09:57:22;7.15;;;6.18;;
23179;SDS011;11758;45.756;11.432;2023-07-09T09:59:49;8.85;;;6.53;;
23179;SDS011;11758;45.756;11.432;2023-07-09T10:02:19;10.10;;;6.00;;
23179;SDS011;11758;45.756;11.432;2023-07-09T10:04:45;14.75;;;7.07;;
23179;SDS011;11758;45.756;11.432;2023-07-09T10:07:21;8.57;;;6.43;;
23179;SDS011;11758;45.756;11.432;2023-07-09T10:09:53;12.10;;;6.43;;
23179;SDS011;11758;45.756;11.432;2023-07-09T10:12:36;8.00;;;6.13;;
23179;SDS011;11758;45.756;11.432;2023-07-09T10:15:24;6.20;;;5.53;;
23179;SDS011;11758;45.756;11.432;2023-07-09T10:17:57;12.10;;;6.15;;
23179;SDS011;11758;45.756;11.432;2023-07-09T10:20:32;6.85;;;5.63;;
23179;SDS011;11758;45.756;11.432;2023-07-09T10:25:34;9.45;;;5.90;;
23179;SDS011;11758;45.756;11.432;2023-07-09T10:28:12;9.90;;;6.40;;
23179;SDS011;11758;45.756;11.432;2023-07-09T10:33:27;16.00;;;7.70;;
23179;SDS011;11758;45.756;11.432;2023-07-09T10:38:45;9.63;;;6.90;;
23179;SDS011;11758;45.756;11.432;2023-07-09T10:41:13;8.25;;;6.18;;
23179;SDS011;11758;45.756;11.432;2023-07-09T10:46:15;8.88;;;6.40;;
23179;SDS011;11758;45.756;11.432;2023-07-09T10:48:43;6.40;;;5.75;;
23179;SDS011;11758;45.756;11.432;2023-07-09T10:53:58;7.40;;;6.70;;
23179;SDS011;11758;45.756;11.432;2023-07-09T10:56:27;6.50;;;5.90;;
23179;SDS011;11758;45.756;11.432;2023-07-09T11:01:39;10.00;;;6.88;;
23179;SDS011;11758;45.756;11.432;2023-07-09T11:06:57;9.20;;;6.30;;
23179;SDS011;11758;45.756;11.432;2023-07-09T11:09:35;11.95;;;6.70;;
23179;SDS011;11758;45.756;11.432;2023-07-09T11:12:50;9.93;;;6.35;;
23179;SDS011;11758;45.756;11.432;2023-07-09T11:14:59;6.80;;;6.13;;
23179;SDS011;11758;45.756;11.432;2023-07-09T11:17:25;9.38;;;6.88;;
23179;SDS011;11758;45.756;11.432;2023-07-09T11:19:58;7.88;;;6.75;;
23179;SDS011;11758;45.756;11.432;2023-07-09T11:22:39;12.75;;;6.75;;
23179;SDS011;11758;45.756;11.432;2023-07-09T11:25:09;8.52;;;6.53;;
23179;SDS011;11758;45.756;11.432;2023-07-09T11:27:48;10.52;;;6.45;;
23179;SDS011;11758;45.756;11.432;2023-07-09T11:30:19;10.00;;;7.00;;
23179;SDS011;11758;45.756;11.432;2023-07-09T11:32:46;9.93;;;6.03;;
23179;SDS011;11758;45.756;11.432;2023-07-09T11:35:20;8.88;;;6.53;;
23179;SDS011;11758;45.756;11.432;2023-07-09T11:37:46;7.38;;;6.60;;
23179;SDS011;11758;45.756;11.432;2023-07-09T11:40:13;9.13;;;6.00;;
23179;SDS011;11758;45.756;11.432;2023-07-09T11:42:55;17.25;;;6.95;;
23179;SDS011;11758;45.756;11.432;2023-07-09T11:45:26;9.90;;;6.70;;
23179;SDS011;11758;45.756;11.432;2023-07-09T11:48:18;11.63;;;6.43;;
23179;SDS011;11758;45.756;11.432;2023-07-09T11:50:46;7.60;;;6.70;;
23179;SDS011;11758;45.756;11.432;2023-07-09T11:53:56;7.10;;;6.32;;
23179;SDS011;11758;45.756;11.432;2023-07-09T11:56:03;7.30;;;6.60;;
23179;SDS011;11758;45.756;11.432;2023-07-09T11:58:30;11.10;;;6.93;;
23179;SDS011;11758;45.756;11.432;2023-07-09T12:00:56;10.30;;;6.47;;
23179;SDS011;11758;45.756;11.432;2023-07-09T12:03:27;10.07;;;6.43;;
23179;SDS011;11758;45.756;11.432;2023-07-09T12:05:55;12.52;;;6.70;;
23179;SDS011;11758;45.756;11.432;2023-07-09T12:08:26;10.48;;;6.30;;
23179;SDS011;11758;45.756;11.432;2023-07-09T12:10:53;8.43;;;6.32;;
23179;SDS011;11758;45.756;11.432;2023-07-09T12:13:19;8.85;;;6.78;;
23179;SDS011;11758;45.756;11.432;2023-07-09T12:15:45;8.10;;;6.35;;
23179;SDS011;11758;45.756;11.432;2023-07-09T12:18:13;9.13;;;6.90;;
23179;SDS011;11758;45.756;11.432;2023-07-09T12:20:40;11.05;;;6.78;;
23179;SDS011;11758;45.756;11.432;2023-07-09T12:23:50;9.18;;;6.55;;
23179;SDS011;11758;45.756;11.432;2023-07-09T12:26:01;13.98;;;6.65;;
23179;SDS011;11758;45.756;11.432;2023-07-09T12:28:28;12.00;;;6.95;;
23179;SDS011;11758;45.756;11.432;2023-07-09T12:30:54;8.60;;;6.75;;
23179;SDS011;11758;45.756;11.432;2023-07-09T12:33:24;11.05;;;6.38;;
23179;SDS011;11758;45.756;11.432;2023-07-09T12:36:00;8.40;;;6.43;;
23179;SDS011;11758;45.756;11.432;2023-07-09T12:38:27;9.63;;;6.63;;
23179;SDS011;11758;45.756;11.432;2023-07-09T12:40:54;7.65;;;6.22;;
23179;SDS011;11758;45.756;11.432;2023-07-09T12:43:30;10.85;;;6.15;;
23179;SDS011;11758;45.756;11.432;2023-07-09T12:45:58;8.98;;;6.47;;
23179;SDS011;11758;45.756;11.432;2023-07-09T12:48:25;6.70;;;6.10;;
23179;SDS011;11758;45.756;11.432;2023-07-09T12:50:54;7.53;;;6.70;;
23179;SDS011;11758;45.756;11.432;2023-07-09T12:53:22;8.02;;;6.20;;
23179;SDS011;11758;45.756;11.432;2023-07-09T12:55:51;6.90;;;6.13;;
23179;SDS011;11758;45.756;11.432;2023-07-09T12:58:20;8.75;;;6.65;;
23179;SDS011;11758;45.756;11.432;2023-07-09T13:00:49;11.85;;;7.00;;
23179;SDS011;11758;45.756;11.432;2023-07-09T13:03:20;8.55;;;6.85;;
23179;SDS011;11758;45.756;11.432;2023-07-09T13:05:53;9.05;;;7.07;;
23179;SDS011;11758;45.756;11.432;2023-07-09T13:08:20;8.80;;;6.55;;
23179;SDS011;11758;45.756;11.432;2023-07-09T13:10:46;12.05;;;6.85;;
23179;SDS011;11758;45.756;11.432;2023-07-09T13:13:16;12.35;;;6.80;;
23179;SDS011;11758;45.756;11.432;2023-07-09T13:15:47;11.05;;;7.13;;
23179;SDS011;11758;45.756;11.432;2023-07-09T13:18:13;10.43;;;7.22;;
23179;SDS011;11758;45.756;11.432;2023-07-09T13:20:44;8.35;;;6.38;;
23179;SDS011;11758;45.756;11.432;2023-07-09T13:23:19;9.20;;;6.20;;
23179;SDS011;11758;45.756;11.432;2023-07-09T13:25:45;7.35;;;6.65;;
23179;SDS011;11758;45.756;11.432;2023-07-09T13:28:25;8.20;;;6.85;;
23179;SDS011;11758;45.756;11.432;2023-07-09T13:30:53;8.52;;;6.10;;
23179;SDS011;11758;45.756;11.432;2023-07-09T13:33:19;12.13;;;6.75;;
23179;SDS011;11758;45.756;11.432;2023-07-09T13:35:46;8.88;;;6.82;;
23179;SDS011;11758;45.756;11.432;2023-07-09T13:38:16;8.48;;;6.80;;
23179;SDS011;11758;45.756;11.432;2023-07-09T13:40:43;6.75;;;6.05;;
23179;SDS011;11758;45.756;11.432;2023-07-09T13:43:18;8.25;;;5.80;;
23179;SDS011;11758;45.756;11.432;2023-07-09T13:45:45;7.07;;;6.38;;
23179;SDS011;11758;45.756;11.432;2023-07-09T13:48:14;10.95;;;6.30;;
23179;SDS011;11758;45.756;11.432;2023-07-09T13:50:41;8.52;;;6.40;;
23179;SDS011;11758;45.756;11.432;2023-07-09T13:53:14;7.55;;;6.32;;
23179;SDS011;11758;45.756;11.432;2023-07-09T13:55:41;9.75;;;6.35;;
23179;SDS011;11758;45.756;11.432;2023-07-09T13:58:15;12.18;;;6.50;;
23179;SDS011;11758;45.756;11.432;2023-07-09T14:00:42;7.47;;;6.63;;
23179;SDS011;11758;45.756;11.432;2023-07-09T14:03:17;10.65;;;6.72;;
23179;SDS011;11758;45.756;11.432;2023-07-09T14:05:44;9.07;;;6.70;;
23179;SDS011;11758;45.756;11.432;2023-07-09T14:08:11;8.82;;;6.80;;
23179;SDS011;11758;45.756;11.432;2023-07-09T14:10:38;7.63;;;6.22;;
23179;SDS011;11758;45.756;11.432;2023-07-09T14:13:05;9.05;;;6.63;;
23179;SDS011;11758;45.756;11.432;2023-07-09T14:15:32;12.07;;;6.50;;
23179;SDS011;11758;45.756;11.432;2023-07-09T14:18:00;8.82;;;6.55;;
23179;SDS011;11758;45.756;11.432;2023-07-09T14:20:28;8.57;;;6.15;;
23179;SDS011;11758;45.756;11.432;2023-07-09T14:22:54;8.57;;;6.25;;
23179;SDS011;11758;45.756;11.432;2023-07-09T14:25:21;9.18;;;6.43;;
23179;SDS011;11758;45.756;11.432;2023-07-09T14:27:55;9.27;;;6.47;;
23179;SDS011;11758;45.756;11.432;2023-07-09T14:30:24;8.10;;;6.55;;
23179;SDS011;11758;45.756;11.432;2023-07-09T14:32:51;12.35;;;6.53;;
23179;SDS011;11758;45.756;11.432;2023-07-09T14:35:18;10.32;;;6.47;;
23179;SDS011;11758;45.756;11.432;2023-07-09T14:37:46;7.95;;;6.47;;
23179;SDS011;11758;45.756;11.432;2023-07-09T14:40:13;11.00;;;6.50;;
23179;SDS011;11758;45.756;11.432;2023-07-09T14:42:41;8.93;;;6.72;;
23179;SDS011;11758;45.756;11.432;2023-07-09T14:45:18;10.38;;;6.20;;
23179;SDS011;11758;45.756;11.432;2023-07-09T14:47:45;12.27;;;6.72;;
23179;SDS011;11758;45.756;11.432;2023-07-09T14:50:14;6.70;;;5.97;;
23179;SDS011;11758;45.756;11.432;2023-07-09T14:52:40;6.82;;;6.28;;
23179;SDS011;11758;45.756;11.432;2023-07-09T14:55:18;8.98;;;6.15;;
23179;SDS011;11758;45.756;11.432;2023-07-09T14:57:45;9.93;;;6.60;;
23179;SDS011;11758;45.756;11.432;2023-07-09T15:00:19;8.88;;;6.72;;
23179;SDS011;11758;45.756;11.432;2023-07-09T15:02:46;7.07;;;6.22;;
23179;SDS011;11758;45.756;11.432;2023-07-09T15:07:39;15.60;;;6.82;;
23179;SDS011;11758;45.756;11.432;2023-07-09T15:10:05;7.13;;;6.53;;
23179;SDS011;11758;45.756;11.432;2023-07-09T15:12:33;8.43;;;6.38;;